Time;durP1;ratioP1;P1;durP2;ratioP2;P2;SDS_P1;SDS_P2;PMS_P1;PMS_P2;Temp;Humidity;BMP_temperature;BMP_pressure;BME280_temperature;BME280_humidity;BME280_pressure;Samples;Min_cycle;Max_cycle;Signal;HPM_P1;HPM_P2
2021/12/01 00:00:58;;;;;;;6.17;4.50;;;;;;;3.24;67.05;100302.34;5033309;28;20208;-79
2021/12/01 00:03:23;;;;;;;5.83;3.97;;;;;;;3.41;68.42;100332.09;5032976;28;20203;-78
2021/12/01 00:05:49;;;;;;;7.77;4.93;;;;;;;3.24;68.63;100309.94;5032834;28;20231;-80
2021/12/01 00:08:15;;;;;;;7.07;4.47;;;;;;;3.31;68.18;100314.06;5032811;28;20263;-79
2021/12/01 00:10:42;;;;;;;8.47;4.57;;;;;;;3.27;68.52;100324.56;5032642;28;20226;-79
2021/12/01 00:13:10;;;;;;;6.07;4.00;;;;;;;3.41;68.07;100321.06;5032899;28;20264;-80
2021/12/01 00:15:36;;;;;;;6.37;4.13;;;;;;;3.39;66.79;100327.56;5032571;28;20173;-80
2021/12/01 00:18:02;;;;;;;5.77;4.03;;;;;;;3.46;66.22;100325.91;5032479;28;20171;-79
2021/12/01 00:20:27;;;;;;;5.43;3.70;;;;;;;3.43;65.72;100330.63;5032559;28;20192;-79
2021/12/01 00:22:53;;;;;;;6.37;3.40;;;;;;;3.44;65.61;100329.91;5032718;28;20168;-79
2021/12/01 00:25:26;;;;;;;5.83;3.97;;;;;;;3.32;64.57;100274.44;5032634;28;20551;-79
2021/12/01 00:27:53;;;;;;;4.53;3.67;;;;;;;3.53;64.50;100324.97;5032613;28;20249;-79
2021/12/01 00:30:21;;;;;;;4.20;3.47;;;;;;;3.58;63.41;100318.81;5032295;28;20559;-80
2021/12/01 00:32:47;;;;;;;6.13;3.83;;;;;;;3.56;63.21;100309.22;5032503;28;20233;-80
2021/12/01 00:35:13;;;;;;;5.73;3.90;;;;;;;3.61;62.57;100292.88;5032137;28;20184;-79
2021/12/01 00:37:40;;;;;;;3.83;2.80;;;;;;;3.75;62.23;100307.13;5032415;28;20321;-80
2021/12/01 00:40:09;;;;;;;5.83;3.00;;;;;;;3.76;61.19;100304.75;5032058;28;20528;-79
2021/12/01 00:42:34;;;;;;;4.83;3.60;;;;;;;3.70;61.40;100296.44;5031955;28;20168;-79
2021/12/01 00:45:06;;;;;;;3.43;2.77;;;;;;;3.81;60.73;100310.34;5032295;28;20182;-80
2021/12/01 00:47:52;;;;;;;7.20;3.57;;;;;;;3.72;61.76;100297.53;5031921;28;20243;-79
2021/12/01 00:50:25;;;;;;;5.30;3.67;;;;;;;3.76;61.83;100301.31;5032082;28;20157;-80
2021/12/01 00:52:52;;;;;;;4.47;3.27;;;;;;;3.80;61.77;100301.84;5046659;28;20203;-79
2021/12/01 00:55:18;;;;;;;6.83;3.77;;;;;;;3.71;61.84;100310.94;5032203;28;20626;-79
2021/12/01 00:57:43;;;;;;;4.17;3.73;;;;;;;3.70;61.89;100298.97;5031778;28;20168;-80
2021/12/01 01:00:10;;;;;;;5.27;3.43;;;;;;;3.63;62.04;100291.44;5031740;28;20281;-80
2021/12/01 01:02:36;;;;;;;9.20;4.87;;;;;;;3.66;61.72;100281.66;5031624;28;20664;-78
2021/12/01 01:05:04;;;;;;;5.37;4.50;;;;;;;3.67;62.19;100280.91;5031260;28;20778;-79
2021/12/01 01:07:29;;;;;;;6.43;3.83;;;;;;;3.62;61.42;100265.22;5031907;28;20176;-79
2021/12/01 01:09:55;;;;;;;8.00;4.20;;;;;;;3.43;62.17;100239.47;5031449;28;20287;-79
2021/12/01 01:18:02;;;;;;;6.07;3.40;;;;;;;3.61;61.82;100275.16;5031868;28;20571;-79
2021/12/01 01:20:28;;;;;;;5.90;4.03;;;;;;;3.61;62.45;100280.22;5031458;28;20643;-80
2021/12/01 01:22:54;;;;;;;4.70;3.70;;;;;;;3.60;62.03;100273.38;5031491;28;20172;-79
2021/12/01 01:25:19;;;;;;;6.83;3.73;;;;;;;3.63;61.52;100261.03;5031372;28;20182;-78
2021/12/01 01:27:45;;;;;;;5.07;3.50;;;;;;;3.71;61.27;100257.72;5031762;28;20237;-79
2021/12/01 01:30:10;;;;;;;5.60;3.20;;;;;;;3.69;61.95;100256.66;5031416;28;20198;-78
2021/12/01 01:32:36;;;;;;;6.23;3.40;;;;;;;3.65;62.73;100249.44;5031657;28;20229;-80
2021/12/01 01:35:01;;;;;;;3.70;3.20;;;;;;;3.58;61.99;100250.41;5031366;28;20183;-79
2021/12/01 01:37:27;;;;;;;3.93;3.20;;;;;;;3.50;62.34;100230.91;5031404;28;20180;-80
2021/12/01 01:39:52;;;;;;;3.73;3.00;;;;;;;3.61;62.10;100240.59;5031588;28;20199;-78
2021/12/01 01:42:18;;;;;;;4.97;3.00;;;;;;;3.70;61.58;100231.47;5031535;28;20176;-79
2021/12/01 01:44:43;;;;;;;5.17;3.80;;;;;;;3.65;62.45;100229.19;5031475;28;20175;-78
2021/12/01 01:47:11;;;;;;;3.50;3.20;;;;;;;3.57;62.17;100225.78;5031135;28;20656;-78
2021/12/01 01:50:00;;;;;;;5.63;3.30;;;;;;;3.77;62.45;100234.69;5031351;28;20172;-79
2021/12/01 01:52:27;;;;;;;3.93;3.53;;;;;;;3.76;62.95;100221.13;5033824;28;20724;-78
2021/12/01 01:54:53;;;;;;;7.17;3.80;;;;;;;3.75;62.21;100206.66;5035420;28;20168;-79
2021/12/01 01:57:19;;;;;;;3.77;3.30;;;;;;;3.89;61.00;100204.00;5035211;28;20682;-78
2021/12/01 01:59:44;;;;;;;3.90;3.00;;;;;;;3.99;60.50;100217.66;5035002;28;20187;-78
2021/12/01 02:02:10;;;;;;;4.63;3.27;;;;;;;3.98;59.05;100226.91;5034927;28;20675;-79
2021/12/01 02:04:35;;;;;;;4.20;3.50;;;;;;;3.89;58.91;100225.88;5035158;28;20232;-78
2021/12/01 02:07:03;;;;;;;4.90;3.50;;;;;;;3.87;59.08;100235.88;5035232;28;20653;-80
2021/12/01 02:09:29;;;;;;;3.77;3.37;;;;;;;3.72;59.86;100224.06;5035388;28;20172;-78
2021/12/01 02:12:00;;;;;;;3.70;3.17;;;;;;;3.67;59.75;100194.75;5034928;28;20176;-79
2021/12/01 02:14:27;;;;;;;3.57;3.17;;;;;;;3.62;60.11;100191.75;5035109;28;20172;-79
2021/12/01 02:16:54;;;;;;;3.53;3.13;;;;;;;3.85;59.52;100214.53;5035168;28;20229;-78
2021/12/01 02:19:20;;;;;;;3.83;3.17;;;;;;;3.62;60.00;100203.50;5035000;28;20211;-78
2021/12/01 02:21:46;;;;;;;4.33;3.00;;;;;;;3.83;59.43;100207.47;5017036;28;20180;-79
2021/12/01 02:24:14;;;;;;;5.20;3.47;;;;;;;3.70;59.02;100212.84;5035050;28;20568;-77
2021/12/01 02:26:46;;;;;;;3.57;2.77;;;;;;;3.78;58.67;100201.91;5034620;28;20180;-79
2021/12/01 02:29:18;;;;;;;5.83;2.90;;;;;;;3.59;58.97;100161.00;5034668;28;20171;-77
2021/12/01 02:31:44;;;;;;;3.30;2.60;;;;;;;3.75;57.82;100185.50;5034512;28;20688;-77
2021/12/01 02:34:13;;;;;;;4.20;3.10;;;;;;;3.73;57.96;100186.94;5034753;28;20180;-78
2021/12/01 02:36:39;;;;;;;4.07;2.90;;;;;;;3.66;58.21;100188.78;5034648;28;20270;-77
2021/12/01 02:39:09;;;;;;;5.43;2.93;;;;;;;3.61;58.13;100177.25;5034494;28;20226;-78
2021/12/01 02:41:35;;;;;;;6.10;3.07;;;;;;;3.68;58.08;100182.28;5034720;28;20191;-77
2021/12/01 02:44:03;;;;;;;3.50;2.80;;;;;;;3.67;58.72;100179.56;5034286;28;20229;-78
2021/12/01 02:46:28;;;;;;;3.43;2.93;;;;;;;3.67;57.73;100172.84;5034188;28;20647;-78
2021/12/01 02:48:56;;;;;;;4.00;2.50;;;;;;;3.61;57.07;100156.09;5034296;28;20191;-78
2021/12/01 02:51:26;;;;;;;3.73;2.97;;;;;;;3.67;57.20;100172.84;5034412;28;20180;-78
2021/12/01 02:53:52;;;;;;;9.40;3.10;;;;;;;3.77;56.59;100178.94;5034444;28;20227;-79
2021/12/01 02:56:21;;;;;;;3.00;2.50;;;;;;;3.64;57.04;100154.78;5034184;28;20184;-77
2021/12/01 02:58:47;;;;;;;4.13;2.70;;;;;;;3.76;56.84;100175.50;5033837;28;20183;-79
2021/12/01 03:01:22;;;;;;;3.47;2.87;;;;;;;3.76;56.44;100178.03;5034172;28;20168;-79
2021/12/01 03:03:48;;;;;;;2.80;2.50;;;;;;;3.85;56.13;100173.97;5034456;28;20172;-78
2021/12/01 03:06:16;;;;;;;3.03;2.73;;;;;;;3.75;57.82;100180.41;5033846;28;20286;-78
2021/12/01 03:08:42;;;;;;;2.63;2.43;;;;;;;3.72;56.89;100173.38;5033945;28;20186;-75
2021/12/01 03:11:09;;;;;;;2.60;2.20;;;;;;;3.74;58.13;100173.53;5033997;28;20196;-79
2021/12/01 03:13:35;;;;;;;3.80;2.63;;;;;;;3.71;58.12;100166.53;5034228;28;20183;-77
2021/12/01 03:16:01;;;;;;;4.50;2.60;;;;;;;3.83;57.46;100170.41;5036381;28;20176;-78
2021/12/01 03:18:27;;;;;;;5.23;2.93;;;;;;;3.86;56.90;100185.94;5036469;28;20656;-78
2021/12/01 03:20:54;;;;;;;6.30;4.37;;;;;;;3.82;56.79;100186.31;5035994;28;20599;-78
2021/12/01 03:23:20;;;;;;;4.90;2.53;;;;;;;3.75;57.54;100172.81;5034706;28;20180;-81
2021/12/01 03:25:46;;;;;;;4.60;3.27;;;;;;;3.85;57.07;100171.44;5039596;28;20184;-83
2021/12/01 03:28:12;;;;;;;2.83;2.40;;;;;;;3.84;57.61;100178.91;5041412;28;20199;-82
2021/12/01 03:30:39;;;;;;;7.67;2.77;;;;;;;3.84;58.17;100172.19;5038639;28;20651;-83
2021/12/01 03:33:08;;;;;;;3.87;2.73;;;;;;;3.11;57.88;100040.03;5034072;28;20262;-85
2021/12/01 03:35:36;;;;;;;4.60;2.70;;;;;;;3.79;56.60;100180.91;5034543;28;20552;-82
2021/12/01 03:38:01;;;;;;;4.00;2.90;;;;;;;3.70;57.04;100168.13;5034323;28;20176;-85
2021/12/01 03:40:26;;;;;;;5.43;2.90;;;;;;;3.73;57.33;100162.50;5033769;28;20291;-84
2021/12/01 03:42:52;;;;;;;4.17;3.17;;;;;;;3.94;57.57;100187.66;5033797;28;20620;-82
2021/12/01 03:45:17;;;;;;;3.93;2.70;;;;;;;3.93;57.14;100190.03;5033973;28;20172;-80
2021/12/01 03:47:44;;;;;;;10.53;5.83;;;;;;;4.00;57.08;100192.50;5033886;28;20251;-80
2021/12/01 03:50:10;;;;;;;3.90;2.60;;;;;;;3.79;56.04;100163.16;5034150;28;20722;-80
2021/12/01 03:52:36;;;;;;;3.93;2.60;;;;;;;4.12;56.28;100187.84;5038891;28;20226;-86
2021/12/01 03:55:03;;;;;;;3.00;2.17;;;;;;;4.13;55.29;100188.00;5043507;28;20168;-82
2021/12/01 03:57:28;;;;;;;5.13;2.83;;;;;;;4.03;56.02;100187.75;5042991;28;20767;-86
2021/12/01 03:59:53;;;;;;;2.90;2.20;;;;;;;4.15;55.22;100204.31;5043592;28;20200;-88
2021/12/01 04:02:19;;;;;;;2.67;2.30;;;;;;;3.85;54.33;100130.00;5045141;28;20178;-88
2021/12/01 04:04:45;;;;;;;4.37;2.50;;;;;;;4.02;55.27;100162.22;5039862;28;20227;-86
2021/12/01 04:07:10;;;;;;;3.63;2.57;;;;;;;4.26;54.65;100199.47;5039110;28;20219;-86
2021/12/01 04:09:38;;;;;;;3.07;2.50;;;;;;;4.19;54.26;100164.06;5041422;28;20172;-86
2021/12/01 04:12:03;;;;;;;2.77;2.13;;;;;;;4.43;53.83;100183.56;5040831;28;20263;-86
2021/12/01 04:14:29;;;;;;;3.17;2.33;;;;;;;4.48;53.11;100183.28;5046378;28;20176;-86
2021/12/01 04:16:54;;;;;;;3.83;2.47;;;;;;;4.39;53.39;100175.63;5038811;28;20179;-87
2021/12/01 04:19:20;;;;;;;3.20;2.50;;;;;;;4.40;53.18;100146.97;5042179;28;20204;-84
2021/12/01 04:21:46;;;;;;;3.57;2.40;;;;;;;4.24;53.83;100147.72;5049857;28;20191;-81
2021/12/01 04:24:11;;;;;;;3.47;2.33;;;;;;;4.50;54.05;100168.25;5031265;28;20171;-86
2021/12/01 04:26:37;;;;;;;2.90;2.43;;;;;;;4.61;53.41;100180.41;5054105;28;20176;-85
2021/12/01 04:29:04;;;;;;;4.77;3.00;;;;;;;4.46;54.14;100151.78;5061182;28;20240;-86
2021/12/01 04:31:33;;;;;;;4.97;3.13;;;;;;;4.57;53.76;100151.28;5035533;28;20187;-81
2021/12/01 04:34:00;;;;;;;12.67;4.80;;;;;;;4.50;54.68;100138.69;5032930;28;20179;-82
2021/12/01 04:36:28;;;;;;;4.33;2.90;;;;;;;4.63;54.54;100148.50;5033371;28;20176;-85
2021/12/01 04:38:53;;;;;;;4.37;2.80;;;;;;;4.50;54.26;100120.94;5034043;28;20171;-84
2021/12/01 04:41:22;;;;;;;5.53;2.90;;;;;;;4.63;55.19;100157.00;5033857;28;20659;-86
2021/12/01 04:43:47;;;;;;;5.10;2.77;;;;;;;4.31;55.07;100119.72;5033923;28;20673;-87
2021/12/01 04:46:16;;;;;;;3.03;2.70;;;;;;;4.55;55.47;100157.84;5035088;28;20267;-90
2021/12/01 04:48:43;;;;;;;6.03;3.17;;;;;;;4.33;56.54;100128.38;5033489;28;20172;-86
2021/12/01 04:51:08;;;;;;;4.30;2.70;;;;;;;4.51;57.05;100159.88;5032834;28;20176;-88
2021/12/01 04:53:35;;;;;;;5.53;2.20;;;;;;;4.37;56.99;100164.41;5033220;28;20233;-85
2021/12/01 04:56:00;;;;;;;3.83;2.67;;;;;;;4.36;57.65;100172.75;5032809;28;20179;-86
2021/12/01 04:58:26;;;;;;;3.47;2.40;;;;;;;4.10;58.47;100162.31;5032830;28;20576;-84
2021/12/01 05:00:51;;;;;;;6.43;3.43;;;;;;;4.19;58.19;100182.72;5014620;28;20639;-83
2021/12/01 05:03:17;;;;;;;4.80;3.50;;;;;;;4.07;58.91;100173.78;5031720;28;20176;-83
2021/12/01 05:05:42;;;;;;;4.00;2.77;;;;;;;4.15;58.13;100175.50;5032434;28;20224;-88
2021/12/01 05:08:08;;;;;;;4.03;2.97;;;;;;;4.21;58.33;100181.25;5032592;28;20172;-85
2021/12/01 05:10:33;;;;;;;6.47;3.47;;;;;;;4.18;58.36;100180.91;5033255;28;20183;-85
2021/12/01 05:12:58;;;;;;;7.97;4.83;;;;;;;4.04;58.22;100158.22;5032408;28;20268;-86
2021/12/01 05:15:24;;;;;;;8.77;4.83;;;;;;;4.29;57.29;100200.69;5032980;28;20188;-88
2021/12/01 05:17:50;;;;;;;11.40;4.60;;;;;;;4.22;57.34;100193.19;5032383;28;20168;-89
2021/12/01 05:20:16;;;;;;;7.13;4.33;;;;;;;4.01;57.74;100156.25;5032215;28;20242;-83
2021/12/01 05:22:43;;;;;;;9.67;3.93;;;;;;;4.30;57.42;100217.75;5031977;28;20651;-86
2021/12/01 05:25:09;;;;;;;6.57;3.60;;;;;;;4.27;58.47;100222.47;5013724;28;20203;-83
2021/12/01 05:27:34;;;;;;;8.60;3.43;;;;;;;4.10;57.97;100204.53;5031506;28;20249;-86
2021/12/01 05:30:00;;;;;;;4.40;3.03;;;;;;;4.40;58.05;100215.44;5032077;28;20180;-82
2021/12/01 05:32:26;;;;;;;5.13;3.50;;;;;;;4.33;57.43;100215.53;5031645;28;20179;-86
2021/12/01 05:34:51;;;;;;;5.03;3.30;;;;;;;4.39;57.77;100233.03;5031204;28;20693;-81
2021/12/01 05:37:17;;;;;;;13.23;7.07;;;;;;;4.32;57.88;100228.03;5031546;28;20317;-81
2021/12/01 05:39:45;;;;;;;7.10;3.97;;;;;;;4.44;58.54;100223.41;5032113;28;20207;-84
2021/12/01 05:42:12;;;;;;;10.03;3.73;;;;;;;4.28;58.11;100171.00;5031134;28;20362;-79
2021/12/01 05:44:39;;;;;;;5.00;3.03;;;;;;;4.33;58.33;100218.06;5031352;28;20717;-83
2021/12/01 05:47:04;;;;;;;5.80;3.60;;;;;;;4.40;58.24;100205.31;5031332;28;20226;-81
2021/12/01 05:49:30;;;;;;;5.23;3.10;;;;;;;4.44;59.01;100220.84;5031439;28;20167;-81
2021/12/01 05:51:55;;;;;;;9.37;4.30;;;;;;;4.42;58.34;100208.00;5031000;28;20228;-80
2021/12/01 05:54:21;;;;;;;5.83;3.87;;;;;;;4.47;59.16;100222.09;5031128;28;20245;-80
2021/12/01 05:56:46;;;;;;;6.63;3.43;;;;;;;4.44;59.13;100216.69;5031274;28;20168;-81
2021/12/01 05:59:12;;;;;;;4.23;2.83;;;;;;;4.45;58.96;100198.19;5031264;28;20214;-81
2021/12/01 06:01:37;;;;;;;5.40;3.77;;;;;;;4.59;59.33;100241.16;5031316;28;20195;-83
2021/12/01 06:04:03;;;;;;;6.27;4.03;;;;;;;4.60;59.39;100231.91;5031286;28;20179;-81
2021/12/01 06:06:29;;;;;;;5.77;3.40;;;;;;;4.63;59.58;100228.06;5031098;28;20220;-79
2021/12/01 06:08:56;;;;;;;5.13;3.80;;;;;;;4.13;60.47;100142.38;5031131;28;20176;-83
2021/12/01 06:11:22;;;;;;;6.87;4.50;;;;;;;4.73;60.15;100227.38;5032726;28;20180;-81
2021/12/01 06:13:51;;;;;;;8.03;4.30;;;;;;;4.81;60.37;100230.75;5033553;28;20180;-79
2021/12/01 06:16:22;;;;;;;9.23;4.50;;;;;;;4.82;60.35;100232.56;5032053;28;20191;-81
2021/12/01 06:18:48;;;;;;;10.93;4.87;;;;;;;4.78;61.66;100235.50;5034268;28;20179;-84
2021/12/01 06:21:13;;;;;;;13.10;5.10;;;;;;;4.88;61.42;100239.94;5015716;28;20180;-82
2021/12/01 06:23:39;;;;;;;10.10;5.47;;;;;;;4.89;61.86;100247.72;5032166;28;20204;-80
2021/12/01 06:26:04;;;;;;;9.20;5.10;;;;;;;4.99;61.61;100259.75;5031387;28;20200;-80
2021/12/01 06:28:30;;;;;;;11.02;6.00;;;;;;;5.06;61.32;100239.34;5031053;28;20637;-82
2021/12/01 06:30:55;;;;;;;13.90;5.30;;;;;;;4.93;61.91;100224.44;5032913;28;20176;-85
2021/12/01 06:33:21;;;;;;;12.20;4.77;;;;;;;5.21;61.20;100246.03;5032422;28;20176;-83
2021/12/01 06:35:49;;;;;;;7.77;4.70;;;;;;;5.08;61.42;100250.56;5032546;28;20721;-84
2021/12/01 06:38:16;;;;;;;7.37;4.50;;;;;;;5.05;61.40;100240.97;5033980;28;20184;-83
2021/12/01 06:40:42;;;;;;;10.33;3.83;;;;;;;4.81;62.25;100221.50;5036888;28;20208;-86
2021/12/01 06:43:08;;;;;;;5.57;3.60;;;;;;;5.07;61.57;100253.81;5051859;28;20180;-85
2021/12/01 06:45:33;;;;;;;8.00;3.53;;;;;;;5.09;62.73;100253.25;5036776;28;20172;-82
2021/12/01 06:47:59;;;;;;;8.13;3.40;;;;;;;5.09;62.18;100278.66;5035748;28;20219;-82
2021/12/01 06:50:24;;;;;;;6.95;4.28;;;;;;;5.06;62.88;100268.16;5035966;28;20556;-83
2021/12/01 06:52:50;;;;;;;5.40;3.50;;;;;;;5.21;62.39;100294.28;5034741;28;20196;-81
2021/12/01 06:55:15;;;;;;;6.43;3.60;;;;;;;4.86;62.27;100230.53;5034671;28;20211;-85
2021/12/01 06:57:41;;;;;;;6.83;4.70;;;;;;;5.22;63.11;100290.09;5016807;28;20215;-84
2021/12/01 07:00:10;;;;;;;11.60;4.47;;;;;;;5.15;67.36;100250.47;5034508;28;20196;-83
2021/12/01 07:02:36;;;;;;;5.87;4.10;;;;;;;5.45;65.78;100283.28;5034351;28;20620;-79
2021/12/01 07:05:02;;;;;;;5.83;3.70;;;;;;;5.54;64.51;100268.06;5034109;28;20269;-82
2021/12/01 07:07:28;;;;;;;6.93;4.70;;;;;;;5.45;62.92;100268.03;5034556;28;20176;-78
2021/12/01 07:09:54;;;;;;;7.53;4.60;;;;;;;5.46;62.55;100268.91;5049960;28;20546;-85
2021/12/01 07:12:20;;;;;;;12.50;5.93;;;;;;;5.16;63.25;100254.78;5034671;28;20229;-84
2021/12/01 07:14:45;;;;;;;10.67;4.40;;;;;;;5.28;63.23;100281.47;5033945;28;20607;-82
2021/12/01 07:17:11;;;;;;;9.33;4.33;;;;;;;4.95;63.05;100217.88;5033785;28;20234;-81
2021/12/01 07:19:37;;;;;;;7.67;4.60;;;;;;;5.39;63.33;100294.41;5034215;28;20224;-82
2021/12/01 07:22:03;;;;;;;9.75;4.82;;;;;;;5.59;63.80;100299.94;5034834;28;20176;-80
2021/12/01 07:24:29;;;;;;;5.47;4.00;;;;;;;5.84;62.37;100310.13;5035491;28;20578;-85
2021/12/01 07:26:55;;;;;;;5.28;3.72;;;;;;;5.86;61.51;100273.94;5051478;28;20180;-85
2021/12/01 07:29:21;;;;;;;4.03;3.33;;;;;;;5.94;61.84;100318.00;5035379;28;20168;-83
2021/12/01 07:31:48;;;;;;;7.27;3.57;;;;;;;5.94;62.26;100323.06;5034242;28;20618;-79
2021/12/01 07:34:14;;;;;;;4.63;3.50;;;;;;;5.82;62.85;100309.06;5033594;28;20647;-79
2021/12/01 07:36:39;;;;;;;6.55;3.75;;;;;;;5.93;63.64;100329.81;5033941;28;20172;-78
2021/12/01 07:39:05;;;;;;;4.22;2.90;;;;;;;6.03;63.31;100329.13;5033376;28;20291;-81
2021/12/01 07:41:30;;;;;;;8.15;3.92;;;;;;;5.96;63.77;100321.59;5033505;28;20204;-79
2021/12/01 07:43:56;;;;;;;10.27;4.00;;;;;;;6.01;63.82;100312.78;5033828;28;20232;-80
2021/12/01 07:46:21;;;;;;;12.10;5.72;;;;;;;6.08;63.89;100319.44;5033239;28;20179;-80
2021/12/01 07:48:47;;;;;;;11.27;6.03;;;;;;;6.14;63.63;100315.88;5032264;28;20180;-79
2021/12/01 07:51:12;;;;;;;8.73;4.72;;;;;;;5.96;64.60;100326.69;5033555;28;20250;-80
2021/12/01 07:53:38;;;;;;;10.50;4.60;;;;;;;6.06;64.76;100331.97;5033749;28;20657;-80
2021/12/01 07:56:05;;;;;;;8.43;5.78;;;;;;;6.11;64.50;100329.91;5033639;28;20259;-80
2021/12/01 07:58:30;;;;;;;8.15;5.03;;;;;;;6.23;64.34;100311.72;5033211;28;20196;-80
2021/12/01 08:00:56;;;;;;;9.30;5.13;;;;;;;6.24;64.53;100303.34;5033234;28;20238;-80
2021/12/01 08:03:21;;;;;;;12.43;5.80;;;;;;;6.13;65.05;100291.16;5033238;28;20182;-80
2021/12/01 08:05:47;;;;;;;12.55;5.85;;;;;;;6.30;65.02;100310.69;5033287;28;20226;-79
2021/12/01 08:08:12;;;;;;;6.30;4.20;;;;;;;6.45;65.25;100321.53;5033605;28;20176;-82
2021/12/01 08:10:38;;;;;;;6.10;3.67;;;;;;;6.52;64.86;100308.69;5033053;28;20643;-81
2021/12/01 08:13:04;;;;;;;9.80;4.18;;;;;;;6.35;65.06;100304.41;5032801;28;20175;-79
2021/12/01 08:15:30;;;;;;;8.20;4.50;;;;;;;6.62;65.43;100328.31;5033198;28;20551;-79
2021/12/01 08:17:56;;;;;;;7.60;5.00;;;;;;;6.90;65.42;100337.97;5033005;28;20198;-80
2021/12/01 08:20:21;;;;;;;7.55;4.25;;;;;;;7.04;65.33;100344.47;5033490;28;20210;-80
2021/12/01 08:22:47;;;;;;;6.80;4.35;;;;;;;7.23;64.82;100330.97;5033881;28;20581;-80
2021/12/01 08:25:14;;;;;;;4.22;3.47;;;;;;;7.32;64.36;100286.00;5033345;28;20214;-78
2021/12/01 08:27:39;;;;;;;4.97;3.30;;;;;;;7.69;63.71;100323.59;5033079;28;20184;-81
2021/12/01 08:30:06;;;;;;;5.10;3.35;;;;;;;7.92;63.51;100330.94;5032887;28;20176;-81
2021/12/01 08:32:32;;;;;;;6.82;4.07;;;;;;;8.22;62.77;100314.16;5035218;28;20191;-81
2021/12/01 08:34:57;;;;;;;5.85;3.95;;;;;;;8.61;62.31;100327.25;5036452;28;20644;-80
2021/12/01 08:37:23;;;;;;;8.50;3.50;;;;;;;8.72;61.64;100336.84;5036386;28;20669;-81
2021/12/01 08:39:50;;;;;;;4.78;3.50;;;;;;;8.79;61.73;100340.84;5033057;28;20199;-81
2021/12/01 08:42:17;;;;;;;7.35;4.40;;;;;;;8.83;60.82;100345.47;5032453;28;20175;-80
2021/12/01 08:44:45;;;;;;;6.85;4.70;;;;;;;8.58;60.85;100282.66;5032339;28;20176;-82
2021/12/01 08:47:14;;;;;;;8.77;4.13;;;;;;;8.92;61.29;100333.56;5032543;28;20183;-81
2021/12/01 08:49:40;;;;;;;5.43;3.17;;;;;;;8.58;60.09;100272.47;5032829;28;20176;-84
2021/12/01 08:52:06;;;;;;;4.88;3.17;;;;;;;9.06;61.12;100331.34;5033005;28;20210;-84
2021/12/01 08:54:32;;;;;;;12.13;4.03;;;;;;;9.11;61.12;100333.56;5032969;28;20171;-85
2021/12/01 08:56:58;;;;;;;10.45;3.53;;;;;;;9.35;60.77;100336.56;5032875;28;20176;-82
2021/12/01 08:59:23;;;;;;;7.10;3.20;;;;;;;9.51;60.40;100329.50;5032034;28;20254;-80
2021/12/01 09:01:49;;;;;;;8.60;3.67;;;;;;;9.78;58.78;100338.75;5013943;28;20198;-82
2021/12/01 09:04:15;;;;;;;7.05;3.10;;;;;;;9.73;58.31;100334.88;5031895;28;20172;-82
2021/12/01 09:06:41;;;;;;;4.10;3.00;;;;;;;9.55;58.42;100297.44;5033292;28;20176;-85
2021/12/01 09:09:06;;;;;;;4.43;3.08;;;;;;;9.64;58.33;100299.13;5032203;28;20655;-84
2021/12/01 09:11:32;;;;;;;3.28;2.67;;;;;;;9.81;58.21;100302.28;5032801;28;20209;-86
2021/12/01 09:13:57;;;;;;;4.70;2.90;;;;;;;10.06;56.40;100333.47;5032338;28;20677;-81
2021/12/01 09:16:23;;;;;;;4.72;2.88;;;;;;;10.09;56.79;100343.97;5031808;28;20171;-80
2021/12/01 09:18:48;;;;;;;6.45;2.95;;;;;;;9.95;56.86;100299.28;5046889;28;20585;-80
2021/12/01 09:21:14;;;;;;;4.32;3.28;;;;;;;9.99;56.75;100344.84;5031862;28;20693;-82
2021/12/01 09:23:39;;;;;;;5.85;3.80;;;;;;;9.75;58.55;100301.72;5031538;28;20612;-81
2021/12/01 09:26:05;;;;;;;7.30;2.80;;;;;;;10.10;56.68;100310.84;5031323;28;20184;-83
2021/12/01 09:28:30;;;;;;;8.95;3.38;;;;;;;10.37;56.06;100320.06;5031778;28;20184;-78
2021/12/01 09:30:57;;;;;;;8.05;3.28;;;;;;;10.41;56.75;100308.41;5031338;28;20179;-77
2021/12/01 09:33:24;;;;;;;7.43;3.47;;;;;;;10.58;56.76;100307.28;5031505;28;20182;-78
2021/12/01 09:35:51;;;;;;;10.63;3.45;;;;;;;10.88;56.47;100302.97;5031616;28;20176;-84
2021/12/01 09:38:18;;;;;;;11.32;3.20;;;;;;;11.05;55.81;100293.31;5032758;28;20207;-85
2021/12/01 09:40:48;;;;;;;5.20;3.22;;;;;;;11.25;55.74;100282.16;5033358;28;20726;-83
2021/12/01 09:43:16;;;;;;;4.63;2.53;;;;;;;11.33;54.98;100267.38;5032412;28;20191;-82
2021/12/01 09:45:41;;;;;;;6.32;3.08;;;;;;;11.47;54.55;100268.53;5031732;28;20191;-84
2021/12/01 09:48:08;;;;;;;4.93;2.80;;;;;;;11.57;53.89;100286.44;5031474;28;20183;-82
2021/12/01 09:50:33;;;;;;;4.38;2.90;;;;;;;11.63;53.87;100286.94;5031915;28;20206;-83
2021/12/01 09:52:59;;;;;;;4.20;2.63;;;;;;;11.55;54.23;100281.16;5031743;28;20631;-84
2021/12/01 09:55:25;;;;;;;5.13;2.85;;;;;;;11.61;54.33;100288.47;5032004;28;20176;-84
2021/12/01 09:58:04;;;;;;;4.05;2.72;;;;;;;11.53;54.31;100272.47;5013756;28;20180;-82
2021/12/01 10:00:32;;;;;;;9.15;3.03;;;;;;;11.72;54.28;100287.69;5030881;28;20234;-82
2021/12/01 10:02:58;;;;;;;6.30;2.70;;;;;;;11.73;54.09;100256.09;5031096;28;20317;-85
2021/12/01 10:06:00;;;;;;;5.50;3.72;;;;;;;12.07;53.86;100281.00;5031132;28;20298;-82
2021/12/01 10:08:29;;;;;;;4.38;2.90;;;;;;;12.22;53.69;100284.78;5031775;28;20717;-83
2021/12/01 10:10:55;;;;;;;10.27;2.95;;;;;;;12.27;52.87;100308.25;5034055;28;20222;-83
2021/12/01 10:13:33;;;;;;;3.17;2.50;;;;;;;12.28;52.30;100297.22;5036700;28;20187;-83
2021/12/01 10:16:01;;;;;;;5.95;2.58;;;;;;;12.27;52.45;100305.69;5036809;28;20171;-85
2021/12/01 10:18:29;;;;;;;8.80;3.08;;;;;;;12.32;52.82;100305.28;5035620;28;20683;-84
2021/12/01 10:21:08;;;;;;;6.15;3.20;;;;;;;12.56;52.98;100311.44;5035259;28;20191;-82
2021/12/01 10:23:36;;;;;;;4.03;3.28;;;;;;;12.99;51.82;100313.78;5035446;28;20152;-83
2021/12/01 10:26:29;;;;;;;5.47;2.95;;;;;;;13.12;51.81;100298.53;5036362;28;20172;-82
2021/12/01 10:28:57;;;;;;;3.65;2.80;;;;;;;13.31;51.18;100299.13;5035820;28;20620;-80
2021/12/01 10:31:33;;;;;;;4.90;2.80;;;;;;;13.36;51.08;100296.88;5035330;28;20294;-82
2021/12/01 10:34:13;;;;;;;4.72;3.17;;;;;;;13.25;51.66;100297.78;5017221;28;20666;-82
2021/12/01 10:36:39;;;;;;;5.93;2.75;;;;;;;13.41;50.98;100290.41;5034982;28;20206;-81
2021/12/01 10:39:06;;;;;;;6.40;3.50;;;;;;;13.36;50.40;100279.78;5034617;28;20210;-84
2021/12/01 10:41:37;;;;;;;8.73;3.17;;;;;;;13.51;50.68;100297.13;5034713;28;20199;-83
2021/12/01 10:44:32;;;;;;;5.47;2.63;;;;;;;13.58;50.59;100297.69;5034777;28;20180;-81
2021/12/01 10:47:10;;;;;;;7.25;2.75;;;;;;;13.74;50.27;100278.22;5025838;28;20216;-79
2021/12/01 10:49:39;;;;;;;3.63;2.42;;;;;;;13.93;49.17;100280.44;5034538;28;20195;-83
2021/12/01 10:52:05;;;;;;;4.43;3.40;;;;;;;14.16;48.88;100282.03;5034559;28;20278;-84
2021/12/01 10:54:30;;;;;;;3.78;2.70;;;;;;;14.23;48.56;100284.25;5034694;28;20176;-81
2021/12/01 10:57:22;;;;;;;6.20;2.72;;;;;;;14.20;48.88;100284.94;5035320;28;20171;-81
2021/12/01 10:59:52;;;;;;;5.22;3.13;;;;;;;14.21;48.61;100276.44;5034108;28;20195;-83
2021/12/01 11:02:19;;;;;;;4.60;2.80;;;;;;;13.79;47.91;100174.75;5034565;28;20187;-84
2021/12/01 11:04:50;;;;;;;5.45;2.40;;;;;;;14.54;47.63;100285.63;5034098;28;20715;-82
2021/12/01 11:07:30;;;;;;;5.15;3.15;;;;;;;14.74;47.98;100279.28;5034165;28;20793;-83
2021/12/01 11:10:17;;;;;;;8.43;2.53;;;;;;;15.00;47.12;100285.28;5034199;28;20187;-83
2021/12/01 11:12:43;;;;;;;6.22;3.03;;;;;;;15.11;46.26;100286.91;5034317;28;20241;-83
2021/12/01 11:15:39;;;;;;;8.15;3.30;;;;;;;15.23;47.08;100272.25;5034177;28;20258;-83
2021/12/01 11:18:07;;;;;;;4.35;3.00;;;;;;;15.50;47.11;100279.09;5033005;28;20188;-82
2021/12/01 11:20:32;;;;;;;13.15;3.22;;;;;;;15.48;46.54;100272.16;5034139;28;20203;-81
2021/12/01 11:23:30;;;;;;;7.20;2.80;;;;;;;15.43;46.80;100278.72;5033734;28;20175;-82
2021/12/01 11:26:05;;;;;;;4.47;3.00;;;;;;;15.74;46.86;100272.09;5033519;28;20250;-83
2021/12/01 11:28:33;;;;;;;12.68;3.22;;;;;;;16.06;46.04;100235.34;5033977;28;20164;-82
2021/12/01 11:31:00;;;;;;;9.48;3.08;;;;;;;16.37;44.70;100275.22;5034519;28;20176;-82
2021/12/01 11:33:28;;;;;;;6.28;2.88;;;;;;;16.25;44.83;100274.47;5033693;28;20176;-84
2021/12/01 11:36:00;;;;;;;5.72;3.03;;;;;;;16.09;44.99;100269.13;5034235;28;20168;-85
2021/12/01 11:38:27;;;;;;;5.45;2.97;;;;;;;16.28;45.43;100255.66;5033628;28;20218;-82